< < Back
Terminal Aerodrome Forecast


Current Version              Previous Versions:   1  2  3  4  5  6  7  8  9  

Terminal Aerodrome Forecast

366
FTUS44 KBMX 130436 AAA
TAFBHM
TAF AMD
KBHM 130436Z 1305/1324 35010G17KT P6SM SKC
     FM130600 35008KT P6SM SKC=



Latest METAR

358
SAUS70 KWBC 131700 RRH
MTRBHM
METAR KBHM 131653Z 01015G18KT 10SM CLR 03/M13 A3050 RMK AO2 SLP330
T00281128


USA.gov is the U.S. government's official web portal to all federal, state and local government web resources and services.